Weather at Townsville Airport / RAAF Base Townsville

Public forecast

Using degrees Celsius for public forecast. Weather courtesy of forecast.io.

Current aviation weather report (METAR) for Townsville Airport / RAAF Base Townsville

2024/02/29 08:00 (retrieved 25 minutes ago)

YBTL 290800Z AUTO 09014KT 9999 // OVC060 28/22 Q1012 RF000/0000

Aviation forecast (TAF) for Townsville Airport / RAAF Base Townsville

2024/02/29 06:36 (retrieved 2 hours ago)

TAF YBTL 290506Z 2906/0106 07018KT 9999 FEW040 FM290900 11012KT 9999 FEW025 FM291500 17005KT 9999 SCT025 FM292300 12012KT 9999 SCT028 FM010200 07017KT 9999 FEW035